Plumas Lake, California
Current Conditions -  °F | °C
As of 9:53 AM on Sunday 25 Jan 2015 (Local Time) from KMYV Reporting Station
Moderate Fog Moderate Fog  
Wind Chill: 42°   Ceiling: 200
Heat Index: 42°   Visibility: 0.25mi
Dew Point: 42°   Wind: 0mph
Humidity: 100%   Direction: NA
Pressure: 30.2"   Gusts: NA
Location:  39.0904°N, 121.552°W
Report Text: KMYV 251753Z AUTO 00000KT 1/4SM FG VV002 06/06 A3020 RMK AO2 SLP232 T00560056 10061 20050 58001
Loading
Personal Weather Stations






























Interactive Weather Map New forecast layout! Learn more

10-Day Weather Forecast

Advertisements
Track Severe Weather on mobile